Wednesday, January 17, 2018, 6:26 AM EST
Back to Local

KDYL, Doylestown Airport

Location: Doylestown, PA, United States Lat: 40.333
Local Time: 6:26 AM EST (11:26 GMT) Lon: -75.117
Time Zone: US/Eastern Elev: 393 ft

Show me the last for .
Show Decoded

2018-01-17 05:54 METAR KDYL 171054Z AUTO VRB04KT 6SM -SN BR BKN006 BKN028 OVC040 00/M01 A3026 RMK
                 AO2 SLP254 P0001 T00001006 =
2018-01-17 05:31 METAR KDYL 171031Z AUTO 33006KT 3SM -SN BR BKN005 OVC025 00/M01 A3026 RMK AO2
                 P0001 T00001006 =
2018-01-17 05:20 METAR KDYL 171020Z AUTO VRB04KT 2 1/2SM -SN BR BKN005 OVC025 00/M01 A3026 RMK
                 AO2 P0001 T00001006 =
2018-01-17 04:54 METAR KDYL 170954Z AUTO 33004KT 2 1/2SM -SN BR BKN004 OVC022 00/M01 A3026 RMK
                 AO2 SLP252 P0000 T00001006 =
2018-01-17 04:35 METAR KDYL 170935Z AUTO 34004KT 2 1/2SM -SN BR BKN004 OVC020 00/M01 A3025 RMK
                 AO2 P0000 T00001006 =
2018-01-17 04:09 METAR KDYL 170909Z AUTO 36004KT 3SM -SN BR SCT005 OVC019 00/00 A3025 RMK AO2
                 P0000 T00000000 =
2018-01-17 03:54 METAR KDYL 170854Z AUTO 36004KT 2 1/2SM -SN BR SCT005 SCT010 OVC015 00/00 A3026
                 RMK AO2 UPE01SNB01 SLP252 P0000 60004 T00000000 58010 =
2018-01-17 03:47 METAR KDYL 170847Z AUTO 35004KT 2 1/2SM -SN BR SCT005 BKN010 OVC015 00/00 A3026
                 RMK AO2 UPE01SNB01 P0000 T00000000 =
2018-01-17 03:33 METAR KDYL 170833Z AUTO 34004KT 3SM -SN BR BKN005 OVC010 00/00 A3026 RMK AO2
                 UPE01SNB01 CIG 003V008 P0000 T00000000 =
2018-01-17 03:21 METAR KDYL 170821Z AUTO 33004KT 2 1/2SM -SN BR OVC005 00/M01 A3027 RMK AO2
                 UPE01SNB01 CIG 003V008 P0000 T00001006 =
2018-01-17 02:54 METAR KDYL 170754Z AUTO 36003KT 4SM UP BR BKN003 OVC027 00/00 A3027 RMK AO2
                 RAE12UPB49SNB12E49 SLP255 P0002 T00000000 =
2018-01-17 02:36 METAR KDYL 170736Z AUTO 36003KT 3SM -SN BR BKN003 OVC010 01/00 A3027 RMK AO2
                 RAE12SNB12 P0002 T00060000 =
2018-01-17 02:28 METAR KDYL 170728Z AUTO 00000KT 2 1/2SM -SN BR BKN003 OVC010 01/00 A3027 RMK AO2
                 RAE12SNB12 P0002 T00060000 =
2018-01-17 01:54 METAR KDYL 170654Z AUTO 00000KT 4SM -RA BR FEW003 BKN012 OVC021 01/00 A3028 RMK
                 AO2 RAB01SNE01 SLP260 P0002 T00060000 =
2018-01-17 00:54 METAR KDYL 170554Z AUTO 00000KT 4SM -SN BR FEW007 OVC012 01/00 A3029 RMK AO2
                 RAE33SNB33 SLP262 P0001 60002 T00060000 10011 20000 56017 =
2018-01-17 00:30 METAR KDYL 170530Z AUTO 24003KT 8SM -RA FEW007 BKN013 OVC020 01/M01 A3030 RMK
                 AO2 P0001 T00061006 =
2018-01-16 23:54 METAR KDYL 170454Z AUTO 04004KT 8SM -RA OVC017 01/M01 A3030 RMK AO2 RAB24 SLP267
                 P0001 T00061006 400391039 =
2018-01-16 23:29 METAR KDYL 170429Z AUTO 29003KT 10SM -RA BKN020 BKN031 OVC049 01/M02 A3031 RMK
                 AO2 RAB24 P0000 T00061017 =
2018-01-16 23:09 METAR KDYL 170409Z AUTO 02004KT 10SM SCT024 BKN040 OVC049 01/M02 A3031 RMK AO2
                 T00061022 =
2018-01-16 22:54 METAR KDYL 170354Z AUTO 00000KT 10SM FEW021 BKN028 OVC049 01/M02 A3032 RMK AO2
                 SLP273 T00061022 =
2018-01-16 21:54 METAR KDYL 170254Z AUTO 02003KT 10SM BKN024 OVC029 01/M03 A3034 RMK AO2 SLP281
                 T00061028 56008 =
2018-01-16 21:42 METAR KDYL 170242Z AUTO 01003KT 10SM BKN029 OVC035 01/M03 A3034 RMK AO2
                 T00061028 =
2018-01-16 20:54 METAR KDYL 170154Z AUTO 00000KT 10SM OVC034 01/M03 A3034 RMK AO2 SLP284
                 T00061028 =
2018-01-16 19:54 METAR KDYL 170054Z AUTO 00000KT 10SM FEW035 01/M03 A3035 RMK AO2 SLP287
                 T00061028 =
2018-01-16 18:54 METAR KDYL 162354Z AUTO 04004KT 10SM OVC033 01/M03 A3036 RMK AO2 SLP291
                 T00111028 10039 20011 52003 =
2018-01-16 17:54 METAR KDYL 162254Z AUTO 00000KT 10SM OVC033 02/M02 A3036 RMK AO2 SLP290
                 T00171022 =
2018-01-16 16:54 METAR KDYL 162154Z AUTO 00000KT 10SM SCT034 03/M02 A3036 RMK AO2 SLP288
                 T00281022 =
2018-01-16 15:54 METAR KDYL 162054Z AUTO 00000KT 10SM FEW070 04/M02 A3035 RMK AO2 SLP287
                 T00391022 56015 =
2018-01-16 14:54 METAR KDYL 161954Z AUTO 00000KT 10SM SCT026 BKN065 04/M02 A3037 RMK AO2 SLP292
                 T00391022 =
2018-01-16 13:54 METAR KDYL 161854Z AUTO VRB04KT 10SM OVC023 03/M02 A3038 RMK AO2 SLP297
                 T00281022 =
2018-01-16 13:07 METAR KDYL 161807Z AUTO 15003KT 10SM BKN024 OVC065 02/M03 A3039 RMK AO2
                 T00221028 =
2018-01-16 12:54 METAR KDYL 161754Z AUTO VRB03KT 10SM FEW024 OVC065 03/M02 A3040 RMK AO2 SLP302
                 60000 T00281022 10028 21039 58026 =
2018-01-16 11:54 METAR KDYL 161654Z AUTO VRB03KT 10SM SCT025 OVC065 02/M03 A3043 RMK AO2 SLP311
                 T00171028 =
2018-01-16 11:30 METAR KDYL 161630Z AUTO 00000KT 10SM BKN026 OVC070 01/M03 A3044 RMK AO2
                 T00061033 =
2018-01-16 11:22 METAR KDYL 161622Z AUTO 15003KT 10SM SCT026 OVC070 01/M03 A3044 RMK AO2
                 T00061033 =
2018-01-16 10:54 METAR KDYL 161554Z AUTO 15003KT 10SM FEW021 BKN026 OVC070 M01/M04 A3046 RMK AO2
                 SLP323 T10061039 =
2018-01-16 10:35 METAR KDYL 161535Z AUTO 15003KT 10SM FEW022 BKN027 OVC070 M01/M04 A3047 RMK AO2
                 T10061039 =
2018-01-16 10:21 METAR KDYL 161521Z AUTO 16003KT 10SM SCT023 OVC070 M01/M04 A3047 RMK AO2
                 T10111039 =
2018-01-16 09:54 METAR KDYL 161454Z AUTO 00000KT 10SM BKN022 OVC027 M02/M04 A3048 RMK AO2 SLP330
                 60000 T10171044 53004 =
2018-01-16 09:33 METAR KDYL 161433Z AUTO 00000KT 10SM BKN019 BKN025 OVC070 M03/M05 A3047 RMK AO2
                 T10281050 =
2018-01-16 08:54 METAR KDYL 161354Z AUTO 00000KT 10SM FEW025 OVC070 M03/M05 A3047 RMK AO2 SNE00
                 SLP327 P0000 T10331050 =
2018-01-16 08:21 METAR KDYL 161321Z AUTO 00000KT 10SM FEW029 BKN070 OVC095 M04/M06 A3047 RMK AO2
                 SNE00 P0000 T10391056 =
2018-01-16 08:11 METAR KDYL 161311Z AUTO 00000KT 10SM BKN029 BKN070 OVC095 M04/M06 A3047 RMK AO2
                 SNE00 P0000 T10391056 =
2018-01-16 07:54 METAR KDYL 161254Z AUTO 00000KT 6SM -SN BR FEW023 BKN031 OVC095 M04/M06 A3047
                 RMK AO2 SNB25 SLP328 P0000 T10391056 $ =
2018-01-16 06:54 METAR KDYL 161154Z AUTO 00000KT 9SM BKN019 OVC025 M04/M06 A3048 RMK AO2 SNB21E51
                 SLP331 P0000 60000 T10391056 11033 21039 53014 $ =

Support USWX by starting your Amazon purchase here.